Altoona, PA (16602)

8:43 AM EDT on June 02, 2015 (GMT -0400)
NE Altoona-Broadway | | Change Station
CLOSE
Current Station
Personal Weather Station
Location: Altoona, PA
Elevation: 1188 ft
Nearby Weather Stations

Elev 1188 ft 40.54 °N, 78.39 °W | Updated 37 seconds ago

Overcast
Overcast
55.9 °F
Feels Like 55.9 °F
N
1.7
Wind Variable Wind from North

Today
High -- | Low -- °F
--% Chance of Precip.
Yesterday
High -- | Low -- °F
Precip. -- in
5:44 AM 8:38 PM
Full, 100% visible
Pressure 30.09 in
Visibility 10.0 miles
Clouds Overcast 700 ft
Dew Point 56 °F
Humidity 99%
Rainfall -999.00 in
Snow Depth Not available.
UV 1 out of 12
Pollen 3.50 out of 12
Air Quality Not available.
Flu Activity Sporadic
METAR KAOO 021153Z AUTO 05005KT 10SM OVC007 12/11 A3009 RMK AO2 RAE23 CIG 004V010 SLP190 P0000 60077 70078 T01220111 10128 20117 53004

More Conditions Fewer Conditions

Pressure 30.09 in
Visibility 10.0 miles
Clouds Overcast 700 ft
Dew Point 56 °F
Humidity 99%
Rainfall -999.00 in
Snow Depth Not available.
UV 1 out of 12
Pollen 3.50 out of 12
Air Quality Not available.
Flu Activity Sporadic
METAR KAOO 021153Z AUTO 05005KT 10SM OVC007 12/11 A3009 RMK AO2 RAE23 CIG 004V010 SLP190 P0000 60077 70078 T01220111 10128 20117 53004

More Conditions Fewer Conditions

10-Day Weather Forecast

Almanac

Astronomy

Jun. 02, 2015 Rise Set
Actual Time
Civil Twilight
Nautical Twilight
Astronomical Twilight
Moon
Length of Visible Light
Length of Day
Tomorrow will be .
, % of the Moon is Illuminated

Today's Extremes

State Highs State Lows

Community

WunderPhotos

Upload Photos

1,825,892 photos uploaded!

WunderBlogs® & News

Nearby

Air Quality

  Air Quality AQ Index Pollutant
Not available.

Snow Depth

Station Depth Elevation

Earthquake Activity

City Distance Mag. Time & Date
Minimum magnitude displayed is 2.5.

Coastal Water Temperatures

Place Temperature

Stations

Nearby Weather Stations

Station Location Temp. Windchill Dew Point Humidity Wind Precip. Elev Updated Type